Time;durP1;ratioP1;P1;durP2;ratioP2;P2;SDS_P1;SDS_P2;PMS_P1;PMS_P2;Temp;Humidity;BMP_temperature;BMP_pressure;BME280_temperature;BME280_humidity;BME280_pressure;Samples;Min_cycle;Max_cycle;Signal;HPM_P1;HPM_P2
2022/04/05 00:01:22;;;;;;;11.57;5.60;;;;;;;4.67;nan;97948.00;4989051;28;20030;-59
2022/04/05 00:03:47;;;;;;;7.10;5.17;;;;;;;4.45;nan;97948.13;4990097;28;20033;-59
2022/04/05 00:06:13;;;;;;;8.83;6.10;;;;;;;4.28;nan;97932.16;4989929;28;20539;-58
2022/04/05 00:08:38;;;;;;;8.10;5.43;;;;;;;4.09;nan;97925.47;4994116;28;20476;-59
2022/04/05 00:11:04;;;;;;;7.93;5.53;;;;;;;4.01;nan;97919.59;4988917;28;20046;-61
2022/04/05 00:13:29;;;;;;;6.60;4.10;;;;;;;4.66;nan;97931.06;4989998;28;20571;-60
2022/04/05 00:15:55;;;;;;;7.80;6.17;;;;;;;4.77;nan;97917.44;4991004;28;20049;-59
2022/04/05 00:18:20;;;;;;;7.87;5.43;;;;;;;4.62;nan;97922.63;4991409;28;20026;-59
2022/04/05 00:20:46;;;;;;;8.13;5.17;;;;;;;4.46;nan;97919.34;4989369;28;20139;-58
2022/04/05 00:23:11;;;;;;;7.93;5.63;;;;;;;4.31;nan;97928.75;4989134;28;20487;-58
2022/04/05 00:25:37;;;;;;;6.70;4.77;;;;;;;4.14;nan;97927.13;4991054;28;20522;-58
2022/04/05 00:28:03;;;;;;;6.77;5.03;;;;;;;4.08;nan;97909.41;4989996;28;20041;-58
2022/04/05 00:30:28;;;;;;;5.87;5.03;;;;;;;4.02;nan;97911.13;4989896;28;20038;-60
2022/04/05 00:32:54;;;;;;;5.37;4.53;;;;;;;4.05;nan;97926.34;4991140;28;20044;-59
2022/04/05 00:35:21;;;;;;;6.53;4.53;;;;;;;4.09;nan;97921.25;4990322;28;20034;-60
2022/04/05 00:37:47;;;;;;;7.63;5.87;;;;;;;4.04;nan;97922.94;4990031;28;20026;-60
2022/04/05 00:40:12;;;;;;;14.60;7.63;;;;;;;4.11;nan;97919.56;4988037;28;20621;-58
2022/04/05 00:42:38;;;;;;;10.97;6.73;;;;;;;4.07;nan;97929.72;4991463;28;20072;-59
2022/04/05 00:45:05;;;;;;;10.87;5.90;;;;;;;4.11;nan;97926.31;4990359;28;20457;-59
2022/04/05 00:47:31;;;;;;;7.87;5.17;;;;;;;4.18;nan;97929.66;4988728;28;20392;-59
2022/04/05 00:49:56;;;;;;;6.70;4.67;;;;;;;4.12;nan;97922.91;4990056;28;20041;-59
2022/04/05 00:52:23;;;;;;;6.60;4.93;;;;;;;4.13;nan;97915.28;4991600;28;20519;-58
2022/04/05 00:54:50;;;;;;;7.77;5.13;;;;;;;4.12;nan;97918.69;4991459;28;20037;-58
2022/04/05 00:57:19;;;;;;;7.50;4.83;;;;;;;4.06;nan;97887.44;4989036;28;20091;-59
2022/04/05 00:59:48;;;;;;;7.13;4.40;;;;;;;4.12;nan;97897.53;4988785;28;20406;-58
2022/04/05 01:02:17;;;;;;;5.73;4.10;;;;;;;4.20;nan;97905.13;4991070;28;20079;-58
2022/04/05 01:04:43;;;;;;;6.37;4.27;;;;;;;4.16;nan;97894.13;4995705;28;20121;-58
2022/04/05 01:07:16;;;;;;;8.90;5.97;;;;;;;4.22;nan;97895.81;4993291;28;20038;-60
2022/04/05 01:09:43;;;;;;;6.33;5.33;;;;;;;4.23;nan;97888.19;4992573;28;20081;-58
2022/04/05 01:12:11;;;;;;;10.10;7.10;;;;;;;4.21;nan;97894.13;4993746;28;20044;-59
2022/04/05 01:14:37;;;;;;;6.27;4.97;;;;;;;4.32;nan;97877.16;4994394;28;20123;-59
2022/04/05 01:17:04;;;;;;;5.80;4.43;;;;;;;4.38;nan;97883.00;4993149;28;20026;-58
2022/04/05 01:19:31;;;;;;;4.97;4.03;;;;;;;4.43;nan;97891.44;4994864;28;20663;-58
2022/04/05 01:21:57;;;;;;;5.90;4.13;;;;;;;4.53;nan;97866.84;4996567;28;20117;-59
2022/04/05 01:24:22;;;;;;;3.90;3.50;;;;;;;4.71;nan;97878.56;4995536;28;20511;-59
2022/04/05 01:26:51;;;;;;;4.10;3.53;;;;;;;4.87;nan;97880.13;4994514;28;20036;-59
2022/04/05 01:29:18;;;;;;;4.63;3.67;;;;;;;5.16;nan;97855.28;4992574;28;20124;-59
2022/04/05 01:31:46;;;;;;;4.13;3.57;;;;;;;5.15;nan;97860.38;4995137;28;20043;-59
2022/04/05 01:34:13;;;;;;;4.63;3.30;;;;;;;5.12;nan;97866.34;4992424;28;20458;-60
2022/04/05 01:36:50;;;;;;;4.53;3.73;;;;;;;5.03;nan;97848.63;4991512;28;20037;-60
2022/04/05 01:39:17;;;;;;;3.67;2.97;;;;;;;5.21;nan;97868.78;4994116;28;20096;-60
2022/04/05 01:41:43;;;;;;;4.20;3.20;;;;;;;5.28;nan;97844.16;4994394;28;20061;-59
2022/04/05 01:44:10;;;;;;;9.57;6.93;;;;;;;5.45;nan;97858.34;4992628;28;20450;-60
2022/04/05 01:46:36;;;;;;;9.40;7.10;;;;;;;5.37;nan;97842.34;4992396;28;20041;-58
2022/04/05 01:49:08;;;;;;;6.00;4.53;;;;;;;5.39;nan;97855.88;4993346;28;20070;-59
2022/04/05 01:51:38;;;;;;;4.93;4.37;;;;;;;5.31;nan;97866.97;4993549;28;20037;-58
2022/04/05 01:54:07;;;;;;;3.97;3.20;;;;;;;5.40;nan;97861.78;4991716;28;20042;-59
2022/04/05 01:56:44;;;;;;;3.07;2.70;;;;;;;5.69;nan;97858.91;4991061;28;20041;-58
2022/04/05 01:59:12;;;;;;;3.23;2.90;;;;;;;5.81;nan;97844.34;4994584;28;20039;-58
2022/04/05 02:01:38;;;;;;;2.50;2.30;;;;;;;5.98;nan;97832.28;4993951;28;20080;-57
2022/04/05 02:04:04;;;;;;;3.67;3.07;;;;;;;6.06;nan;97834.75;4990940;28;20473;-59
2022/04/05 02:06:30;;;;;;;4.20;3.57;;;;;;;5.96;nan;97834.00;4992597;28;20528;-59
2022/04/05 02:08:55;;;;;;;3.13;2.67;;;;;;;5.94;nan;97837.47;4993132;28;20041;-59
2022/04/05 02:11:22;;;;;;;3.03;2.73;;;;;;;5.75;nan;97819.00;4992184;28;20030;-58
2022/04/05 02:13:47;;;;;;;3.67;2.90;;;;;;;5.71;nan;97811.44;4991271;28;20045;-58
2022/04/05 02:16:13;;;;;;;2.87;2.27;;;;;;;5.78;nan;97807.94;4992185;28;20147;-58
2022/04/05 02:18:38;;;;;;;3.87;2.43;;;;;;;6.04;nan;97803.38;4993516;28;20037;-58
2022/04/05 02:21:05;;;;;;;3.43;2.83;;;;;;;5.87;nan;97812.94;4991439;28;20038;-59
2022/04/05 02:23:31;;;;;;;3.10;2.80;;;;;;;5.70;nan;97812.28;4990447;28;20037;-59
2022/04/05 02:25:57;;;;;;;2.97;2.67;;;;;;;5.80;nan;97796.91;4991915;28;20042;-59
2022/04/05 02:28:23;;;;;;;5.37;2.70;;;;;;;5.88;nan;97815.47;4994366;28;20033;-58
2022/04/05 02:30:48;;;;;;;2.97;2.57;;;;;;;6.09;nan;97804.16;4992113;28;20064;-58
2022/04/05 02:33:14;;;;;;;2.87;2.63;;;;;;;6.01;nan;97795.78;4992027;28;20451;-59
2022/04/05 02:35:39;;;;;;;2.43;2.23;;;;;;;6.09;nan;97803.31;4992055;28;20978;-59
2022/04/05 02:38:05;;;;;;;4.03;2.20;;;;;;;6.05;nan;97778.78;4994255;28;20641;-59
2022/04/05 02:40:30;;;;;;;2.77;2.10;;;;;;;6.10;nan;97785.50;4992015;28;20045;-57
2022/04/05 02:42:56;;;;;;;2.67;2.43;;;;;;;6.12;nan;97782.91;4991818;28;20042;-58
2022/04/05 02:45:22;;;;;;;2.00;1.80;;;;;;;6.35;nan;97791.03;4992751;28;20030;-57
2022/04/05 02:47:48;;;;;;;2.83;2.10;;;;;;;6.28;nan;97774.19;4992212;28;20564;-58
2022/04/05 02:50:17;;;;;;;2.80;2.27;;;;;;;6.34;nan;97785.09;4990549;28;20377;-58
2022/04/05 02:52:46;;;;;;;3.27;2.50;;;;;;;6.37;nan;97766.38;4989504;28;20034;-59
2022/04/05 02:55:12;;;;;;;4.50;2.53;;;;;;;6.46;nan;97776.41;4991914;28;20056;-59
2022/04/05 02:57:39;;;;;;;5.07;2.40;;;;;;;6.38;nan;97783.34;4991643;28;20038;-59
2022/04/05 03:00:09;;;;;;;3.13;2.93;;;;;;;6.32;nan;97776.63;4990516;28;20037;-58
2022/04/05 03:02:35;;;;;;;2.70;1.97;;;;;;;6.33;nan;97755.41;4990377;28;20037;-59
2022/04/05 03:05:07;;;;;;;2.30;2.10;;;;;;;6.42;nan;97770.53;4992491;28;20065;-59
2022/04/05 03:07:36;;;;;;;2.17;1.90;;;;;;;6.33;nan;97750.31;4992873;28;20427;-58
2022/04/05 03:10:03;;;;;;;2.00;1.77;;;;;;;6.33;nan;97767.28;4990251;28;20069;-59
2022/04/05 03:12:29;;;;;;;3.57;1.90;;;;;;;6.10;nan;97743.94;4991086;28;20048;-59
2022/04/05 03:14:55;;;;;;;3.70;1.70;;;;;;;6.49;nan;97773.84;4999060;28;20058;-59
2022/04/05 03:17:20;;;;;;;2.20;1.70;;;;;;;6.38;nan;97760.44;4990472;28;20038;-59
2022/04/05 03:19:45;;;;;;;3.13;1.73;;;;;;;6.22;nan;97751.38;4989053;28;20030;-61
2022/04/05 03:22:11;;;;;;;2.27;2.03;;;;;;;6.29;nan;97769.06;4991215;28;20038;-58
2022/04/05 03:24:37;;;;;;;2.47;1.70;;;;;;;6.12;nan;97743.03;4991457;28;20026;-58
2022/04/05 03:27:03;;;;;;;2.30;2.10;;;;;;;6.42;nan;97768.00;4990963;28;20034;-59
2022/04/05 03:29:29;;;;;;;1.67;1.57;;;;;;;6.53;nan;97770.38;4989990;28;20119;-59
2022/04/05 03:31:54;;;;;;;3.00;2.60;;;;;;;6.63;nan;97765.94;4991005;28;20117;-59
2022/04/05 03:34:19;;;;;;;2.80;2.20;;;;;;;6.64;nan;97758.28;4992198;28;20069;-60
2022/04/05 03:36:45;;;;;;;2.17;1.70;;;;;;;6.60;nan;97781.28;4991049;28;20030;-57
2022/04/05 03:39:13;;;;;;;2.77;2.00;;;;;;;6.49;nan;97750.09;4990945;28;20029;-58
2022/04/05 03:41:39;;;;;;;1.73;1.57;;;;;;;6.51;nan;97727.97;5000837;28;20552;-58
2022/04/05 03:44:05;;;;;;;2.60;1.87;;;;;;;6.83;nan;97759.63;4991583;28;20025;-59
2022/04/05 03:46:31;;;;;;;4.53;2.00;;;;;;;6.67;nan;97742.09;4989765;28;20357;-59
2022/04/05 03:48:57;;;;;;;2.60;1.80;;;;;;;6.65;nan;97757.44;4989373;28;20450;-59
2022/04/05 03:51:22;;;;;;;2.53;1.90;;;;;;;6.62;nan;97759.19;4992328;28;20463;-59
2022/04/05 03:53:48;;;;;;;2.17;1.73;;;;;;;6.55;nan;97750.81;4993000;28;20022;-59
2022/04/05 03:56:13;;;;;;;2.63;1.80;;;;;;;6.53;nan;97746.63;4988492;28;20025;-58
2022/04/05 03:58:39;;;;;;;1.80;1.70;;;;;;;6.63;nan;97755.75;4990944;28;20603;-57
2022/04/05 04:01:05;;;;;;;1.93;1.60;;;;;;;6.85;nan;97760.47;4991434;28;20528;-57
2022/04/05 04:03:30;;;;;;;1.83;1.63;;;;;;;6.79;nan;97760.56;4991107;28;20030;-58
2022/04/05 04:05:55;;;;;;;2.57;2.37;;;;;;;6.66;nan;97769.28;4989294;28;20510;-59
2022/04/05 04:08:21;;;;;;;2.57;2.00;;;;;;;6.63;nan;97755.75;4990983;28;20505;-59
2022/04/05 04:10:51;;;;;;;2.03;1.83;;;;;;;6.52;nan;97743.22;4990408;28;20031;-59
2022/04/05 04:13:17;;;;;;;2.73;1.90;;;;;;;6.48;nan;97761.13;4991459;28;20030;-59
2022/04/05 04:15:42;;;;;;;2.87;1.70;;;;;;;6.53;nan;97754.25;4990538;28;20417;-62
2022/04/05 04:18:07;;;;;;;1.80;1.70;;;;;;;6.58;nan;97726.97;4988546;28;20090;-59
2022/04/05 04:20:33;;;;;;;1.77;1.67;;;;;;;6.85;nan;97736.69;4991123;28;20503;-59
2022/04/05 04:22:58;;;;;;;2.63;1.90;;;;;;;7.04;nan;97750.78;4991836;28;20034;-59
2022/04/05 04:25:24;;;;;;;2.33;1.53;;;;;;;7.21;nan;97755.53;4990422;28;20034;-59
2022/04/05 04:27:51;;;;;;;2.33;1.80;;;;;;;7.21;nan;97758.09;4993464;28;20407;-59
2022/04/05 04:30:16;;;;;;;1.70;1.60;;;;;;;7.37;nan;97743.31;4991953;28;20499;-59
2022/04/05 04:32:42;;;;;;;1.97;1.77;;;;;;;7.42;nan;97734.72;4991041;28;20038;-59
2022/04/05 04:35:08;;;;;;;2.40;1.57;;;;;;;7.56;nan;97736.94;4991340;28;20524;-59
2022/04/05 04:37:34;;;;;;;1.57;1.47;;;;;;;7.51;nan;97733.69;4993045;28;20594;-59
2022/04/05 04:40:00;;;;;;;3.37;1.53;;;;;;;7.54;nan;97742.09;4995909;28;20464;-59
2022/04/05 04:42:26;;;;;;;2.40;1.43;;;;;;;7.66;nan;97728.22;4994022;28;20037;-59
2022/04/05 04:44:51;;;;;;;2.17;1.70;;;;;;;7.82;nan;97740.63;4995273;28;20092;-60
2022/04/05 04:47:17;;;;;;;2.53;1.73;;;;;;;7.83;nan;97749.09;4997119;28;20041;-59
2022/04/05 04:49:43;;;;;;;1.90;1.60;;;;;;;7.87;nan;97757.53;4995133;28;20026;-58
2022/04/05 04:52:09;;;;;;;1.27;1.17;;;;;;;7.87;nan;97745.63;4991493;28;20040;-59
2022/04/05 04:54:34;;;;;;;1.97;1.40;;;;;;;7.97;nan;97752.19;4991897;28;20375;-58
2022/04/05 04:56:59;;;;;;;3.17;1.20;;;;;;;7.93;nan;97731.88;4994104;28;20469;-59
2022/04/05 04:59:25;;;;;;;1.60;1.13;;;;;;;7.99;nan;97739.38;4994848;28;20034;-59
2022/04/05 05:01:51;;;;;;;2.60;1.10;;;;;;;8.02;nan;97747.00;4994138;28;20476;-60
2022/04/05 05:04:16;;;;;;;2.63;1.27;;;;;;;8.01;nan;97746.16;4993629;28;20516;-60
2022/04/05 05:06:41;;;;;;;3.73;1.40;;;;;;;8.06;nan;97748.59;4995281;28;20038;-58
2022/04/05 05:09:07;;;;;;;2.03;1.30;;;;;;;7.95;nan;97737.78;4994802;28;20025;-59
2022/04/05 05:11:32;;;;;;;1.93;1.20;;;;;;;8.04;nan;97761.38;4991950;28;20046;-54
2022/04/05 05:13:58;;;;;;;1.27;1.10;;;;;;;8.08;nan;97744.28;4997052;28;20492;-63
2022/04/05 05:16:23;;;;;;;1.10;1.03;;;;;;;8.12;nan;97744.19;4994421;28;20068;-64
2022/04/05 05:18:49;;;;;;;1.20;1.10;;;;;;;8.12;nan;97740.78;4994870;28;20090;-62
2022/04/05 05:21:14;;;;;;;0.77;0.77;;;;;;;8.11;nan;97728.88;4992205;28;20064;-62
2022/04/05 05:23:40;;;;;;;1.73;1.00;;;;;;;8.18;nan;97733.00;4991285;28;20115;-64
2022/04/05 05:26:05;;;;;;;1.20;1.00;;;;;;;8.11;nan;97729.72;4995726;28;20030;-62
2022/04/05 05:28:30;;;;;;;1.20;1.10;;;;;;;8.28;nan;97750.59;4993214;28;20228;-63
2022/04/05 05:30:56;;;;;;;1.53;1.30;;;;;;;8.31;nan;97754.00;4992753;28;20040;-62
2022/04/05 05:33:21;;;;;;;0.80;0.80;;;;;;;8.21;nan;97738.00;4994583;28;20404;-63
2022/04/05 05:35:47;;;;;;;0.80;0.80;;;;;;;8.31;nan;97747.19;4993543;28;20034;-62
2022/04/05 05:38:12;;;;;;;3.77;1.07;;;;;;;8.35;nan;97741.13;4994167;28;20458;-62
2022/04/05 05:40:38;;;;;;;0.80;0.80;;;;;;;8.30;nan;97725.06;4990365;28;20036;-65
2022/04/05 05:43:04;;;;;;;3.37;0.97;;;;;;;8.43;nan;97735.81;4994228;28;20030;-66
2022/04/05 05:45:32;;;;;;;2.43;0.90;;;;;;;8.45;nan;97732.34;4994778;28;20060;-65
2022/04/05 05:47:58;;;;;;;1.43;1.17;;;;;;;8.41;nan;97740.09;4993178;28;20030;-66
2022/04/05 05:50:26;;;;;;;0.87;0.80;;;;;;;8.46;nan;97722.97;4992769;28;20413;-67
2022/04/05 05:52:52;;;;;;;0.70;0.70;;;;;;;8.46;nan;97748.50;4994538;28;20034;-65
2022/04/05 05:55:19;;;;;;;0.50;0.50;;;;;;;8.50;nan;97745.00;4994301;28;20035;-64
2022/04/05 05:57:46;;;;;;;0.70;0.70;;;;;;;8.42;nan;97757.13;4992477;28;20140;-63
2022/04/05 06:00:21;;;;;;;2.43;1.00;;;;;;;8.48;nan;97745.06;4992358;28;20487;-63
2022/04/05 06:02:49;;;;;;;1.75;0.80;;;;;;;8.51;nan;97767.13;4995436;28;20037;-64
2022/04/05 06:05:15;;;;;;;2.30;0.83;;;;;;;8.45;nan;97757.88;4994405;28;20034;-62
2022/04/05 06:07:41;;;;;;;0.67;0.67;;;;;;;8.59;nan;97765.19;4991789;28;20351;-61
2022/04/05 06:10:09;;;;;;;1.10;0.90;;;;;;;8.57;nan;97772.91;4991066;28;20537;-62
2022/04/05 06:12:39;;;;;;;0.60;0.60;;;;;;;8.60;nan;97784.78;4994016;28;20181;-64
2022/04/05 06:15:10;;;;;;;0.87;0.83;;;;;;;8.63;nan;97775.31;4993900;28;20136;-60
2022/04/05 06:17:37;;;;;;;1.23;0.73;;;;;;;8.80;nan;97786.81;4990921;28;20034;-61
2022/04/05 06:20:04;;;;;;;1.50;0.90;;;;;;;8.76;nan;97800.56;4992421;28;20030;-62
2022/04/05 06:22:29;;;;;;;5.60;1.10;;;;;;;8.76;nan;97780.09;4992837;28;20041;-62
2022/04/05 06:24:55;;;;;;;1.43;0.90;;;;;;;8.77;nan;97795.41;4992368;28;20034;-62
2022/04/05 06:27:20;;;;;;;0.80;0.80;;;;;;;8.81;nan;97801.28;4989848;28;20384;-62
2022/04/05 06:29:45;;;;;;;2.13;1.13;;;;;;;8.84;nan;97811.41;4991933;28;20049;-58
2022/04/05 06:32:11;;;;;;;1.17;0.80;;;;;;;8.82;nan;97806.38;4992542;28;20035;-58
2022/04/05 06:34:37;;;;;;;0.63;0.63;;;;;;;8.76;nan;97782.66;4991739;28;20038;-58
2022/04/05 06:37:02;;;;;;;0.80;0.80;;;;;;;8.84;nan;97793.53;4990195;28;20038;-59
2022/04/05 06:39:28;;;;;;;0.70;0.70;;;;;;;8.86;nan;97791.78;4992156;28;20534;-61
2022/04/05 06:41:55;;;;;;;1.33;0.77;;;;;;;8.96;nan;97791.50;4992011;28;20049;-59
2022/04/05 06:44:20;;;;;;;0.90;0.80;;;;;;;9.07;nan;97786.13;4991181;28;20054;-58
2022/04/05 06:46:46;;;;;;;0.70;0.70;;;;;;;9.07;nan;97796.34;4990181;28;20042;-59
2022/04/05 06:49:11;;;;;;;0.70;0.70;;;;;;;8.94;nan;97788.16;4991659;28;20626;-58
2022/04/05 06:51:37;;;;;;;1.47;0.70;;;;;;;8.95;nan;97781.31;4992334;28;20053;-59
2022/04/05 06:54:03;;;;;;;1.37;0.73;;;;;;;9.07;nan;97798.91;4990924;28;20544;-59
2022/04/05 06:56:29;;;;;;;0.77;0.77;;;;;;;9.08;nan;97775.00;4990042;28;20033;-59
2022/04/05 06:58:54;;;;;;;1.27;0.83;;;;;;;9.15;nan;97792.69;4992043;28;20112;-59
2022/04/05 07:01:20;;;;;;;1.13;1.03;;;;;;;9.10;nan;97784.31;4992083;28;20123;-59
2022/04/05 07:03:45;;;;;;;1.07;0.97;;;;;;;9.13;nan;97796.16;4989759;28;20386;-59
2022/04/05 07:06:11;;;;;;;0.70;0.70;;;;;;;9.11;nan;97798.78;4989056;28;20034;-61
2022/04/05 07:08:36;;;;;;;0.83;0.57;;;;;;;9.21;nan;97814.69;4991907;28;20037;-58
2022/04/05 07:11:02;;;;;;;0.60;0.60;;;;;;;9.27;nan;97806.88;4992377;28;20026;-58
2022/04/05 07:13:30;;;;;;;2.00;0.60;;;;;;;9.29;nan;97814.50;4989774;28;20042;-59
2022/04/05 07:15:56;;;;;;;0.50;0.50;;;;;;;9.26;nan;97815.41;4990186;28;20049;-58
2022/04/05 07:18:22;;;;;;;0.70;0.70;;;;;;;9.16;nan;97790.97;4992123;28;20140;-59
2022/04/05 07:20:48;;;;;;;0.60;0.60;;;;;;;9.24;nan;97806.13;4991194;28;20093;-59
2022/04/05 07:23:15;;;;;;;1.30;0.60;;;;;;;9.25;nan;97807.81;4987841;28;20033;-59
2022/04/05 07:25:41;;;;;;;1.10;0.53;;;;;;;9.25;nan;97810.34;4990600;28;20095;-59
2022/04/05 07:28:06;;;;;;;0.70;0.70;;;;;;;9.27;nan;97800.91;4990888;28;20034;-58
2022/04/05 07:30:32;;;;;;;0.50;0.50;;;;;;;9.30;nan;97799.09;4991538;28;20050;-59
2022/04/05 07:32:58;;;;;;;1.30;0.60;;;;;;;9.24;nan;97795.88;4988895;28;20342;-59
2022/04/05 07:35:23;;;;;;;0.80;0.80;;;;;;;9.24;nan;97803.56;4988561;28;20042;-59
2022/04/05 07:37:49;;;;;;;0.80;0.60;;;;;;;9.21;nan;97806.22;4991749;28;20023;-61
2022/04/05 07:40:15;;;;;;;0.70;0.70;;;;;;;9.24;nan;97795.88;4990625;28;20047;-60
2022/04/05 07:42:43;;;;;;;0.50;0.50;;;;;;;9.16;nan;97802.03;4989975;28;20041;-58
2022/04/05 07:45:10;;;;;;;0.53;0.53;;;;;;;9.13;nan;97820.00;4990782;28;20038;-58
2022/04/05 07:47:36;;;;;;;0.77;0.60;;;;;;;9.07;nan;97783.56;4990821;28;20034;-55
2022/04/05 07:50:02;;;;;;;0.60;0.60;;;;;;;9.23;nan;97809.53;4990451;28;20077;-59
2022/04/05 07:52:28;;;;;;;0.87;0.50;;;;;;;9.18;nan;97830.97;4990701;28;20149;-59
2022/04/05 07:54:53;;;;;;;0.70;0.53;;;;;;;9.22;nan;97818.94;4991581;28;20648;-59
2022/04/05 07:57:18;;;;;;;0.63;0.50;;;;;;;9.24;nan;97829.97;4992265;28;20034;-59
2022/04/05 07:59:44;;;;;;;0.67;0.67;;;;;;;9.27;nan;97836.72;4988541;28;20042;-59
2022/04/05 08:02:09;;;;;;;0.40;0.40;;;;;;;9.42;nan;97837.13;4989066;28;20096;-63
2022/04/05 08:04:35;;;;;;;0.67;0.67;;;;;;;9.38;nan;97835.53;4990178;28;20301;-59
2022/04/05 08:07:01;;;;;;;0.80;0.60;;;;;;;9.32;nan;97852.78;4990532;28;20060;-60
2022/04/05 08:09:27;;;;;;;1.33;0.50;;;;;;;9.44;nan;97847.34;4990774;28;20030;-59
2022/04/05 08:11:53;;;;;;;0.60;0.60;;;;;;;9.43;nan;97849.06;4988871;28;20034;-58
2022/04/05 08:14:18;;;;;;;0.40;0.40;;;;;;;9.53;nan;97842.81;4990117;28;20126;-59
2022/04/05 08:16:44;;;;;;;0.57;0.57;;;;;;;9.44;nan;97857.56;4992294;28;20042;-59
2022/04/05 08:19:10;;;;;;;0.40;0.40;;;;;;;9.32;nan;97828.06;4989896;28;20026;-60
2022/04/05 08:21:36;;;;;;;0.60;0.60;;;;;;;9.39;nan;97861.97;4989064;28;20322;-59
2022/04/05 08:24:02;;;;;;;0.70;0.70;;;;;;;9.36;nan;97859.50;4991236;28;20034;-60
2022/04/05 08:26:27;;;;;;;0.50;0.50;;;;;;;9.46;nan;97858.38;4989410;28;20132;-58
2022/04/05 08:28:55;;;;;;;0.77;0.50;;;;;;;9.47;nan;97857.47;4992760;28;20531;-58
2022/04/05 08:31:21;;;;;;;0.60;0.60;;;;;;;9.47;nan;97855.75;4988910;28;20479;-58
2022/04/05 08:33:46;;;;;;;0.40;0.40;;;;;;;9.37;nan;97854.34;4990015;28;20030;-58
2022/04/05 08:36:12;;;;;;;0.50;0.50;;;;;;;9.39;nan;97861.97;4991177;28;20042;-59
2022/04/05 08:38:39;;;;;;;0.60;0.60;;;;;;;9.46;nan;97863.50;4989707;28;20037;-59
2022/04/05 08:41:07;;;;;;;0.53;0.53;;;;;;;9.53;nan;97882.91;4996401;28;20457;-59
2022/04/05 08:43:34;;;;;;;2.00;0.53;;;;;;;9.50;nan;97888.13;4989747;28;20536;-58
2022/04/05 08:46:01;;;;;;;0.40;0.40;;;;;;;9.48;nan;97874.50;4990739;28;20473;-56
2022/04/05 08:48:29;;;;;;;0.93;0.70;;;;;;;9.41;nan;97881.53;4988452;28;20034;-57
2022/04/05 08:50:57;;;;;;;0.50;0.50;;;;;;;9.48;nan;97883.03;4989316;28;20666;-57
2022/04/05 08:53:24;;;;;;;1.47;0.77;;;;;;;9.35;nan;97883.38;4991294;28;20080;-57
2022/04/05 08:55:51;;;;;;;0.60;0.60;;;;;;;9.46;nan;97889.09;4989887;28;20042;-58
2022/04/05 08:58:17;;;;;;;1.23;0.80;;;;;;;9.52;nan;97894.03;4988705;28;20030;-57
2022/04/05 09:00:43;;;;;;;0.80;0.80;;;;;;;9.61;nan;97886.94;4989499;28;20099;-57
2022/04/05 09:03:08;;;;;;;0.50;0.50;;;;;;;9.70;nan;97898.66;4990569;28;20033;-57
2022/04/05 09:05:39;;;;;;;0.63;0.60;;;;;;;9.87;nan;97882.81;4988802;28;20034;-58
2022/04/05 09:08:31;;;;;;;0.77;0.77;;;;;;;10.00;nan;97890.13;4988140;28;20034;-57
2022/04/05 09:11:08;;;;;;;0.47;0.47;;;;;;;10.12;nan;97893.19;4987774;28;20065;-57
2022/04/05 09:13:33;;;;;;;0.50;0.50;;;;;;;10.06;nan;97894.22;4991940;28;20112;-57
2022/04/05 09:16:04;;;;;;;0.47;0.47;;;;;;;10.01;nan;97911.44;4988623;28;20046;-60
2022/04/05 09:18:44;;;;;;;0.50;0.50;;;;;;;9.96;nan;97911.56;4988063;28;20041;-60
2022/04/05 09:21:11;;;;;;;1.80;0.43;;;;;;;9.94;nan;97886.88;4991203;28;20034;-61
2022/04/05 09:23:41;;;;;;;0.50;0.50;;;;;;;10.06;nan;97891.66;4992566;28;20037;-63
2022/04/05 09:26:09;;;;;;;0.50;0.50;;;;;;;9.95;nan;97891.97;4991769;28;20152;-61
2022/04/05 09:28:45;;;;;;;1.50;0.60;;;;;;;9.97;nan;97885.06;4993667;28;20034;-60
2022/04/05 09:31:13;;;;;;;0.77;0.77;;;;;;;10.16;nan;97892.25;4995515;28;20049;-60
2022/04/05 09:33:59;;;;;;;2.77;0.60;;;;;;;10.24;nan;97895.44;4991824;28;20037;-60
2022/04/05 09:36:37;;;;;;;1.57;1.33;;;;;;;10.29;nan;97893.59;4989746;28;20038;-61
2022/04/05 09:39:17;;;;;;;1.00;0.57;;;;;;;10.28;nan;97885.06;4995321;28;20045;-64
2022/04/05 09:41:44;;;;;;;1.27;0.60;;;;;;;10.45;nan;97911.00;4993949;28;20029;-61
2022/04/05 09:44:09;;;;;;;6.57;0.93;;;;;;;10.53;nan;97910.78;4991824;28;20061;-62
2022/04/05 09:46:36;;;;;;;1.40;0.55;;;;;;;10.49;nan;97911.75;4992290;28;20025;-60
2022/04/05 09:49:14;;;;;;;0.60;0.60;;;;;;;10.33;nan;97896.00;4994962;28;20021;-60
2022/04/05 09:51:45;;;;;;;0.50;0.50;;;;;;;10.31;nan;97902.88;4994223;28;20056;-59
2022/04/05 09:54:27;;;;;;;1.17;0.70;;;;;;;10.42;nan;97905.16;4992474;28;20034;-59
2022/04/05 09:56:59;;;;;;;0.40;0.40;;;;;;;10.53;nan;97900.53;4994579;28;20042;-59
2022/04/05 09:59:24;;;;;;;0.53;0.53;;;;;;;10.80;nan;97899.69;4994184;28;20567;-62
2022/04/05 10:01:52;;;;;;;3.30;0.85;;;;;;;11.02;nan;97902.41;4992795;28;20113;-59
2022/04/05 10:04:18;;;;;;;0.50;0.50;;;;;;;11.03;nan;97892.97;4991705;28;20048;-58
2022/04/05 10:06:47;;;;;;;0.60;0.60;;;;;;;10.95;nan;97891.47;4993280;28;20050;-59
2022/04/05 10:09:18;;;;;;;0.93;0.77;;;;;;;10.65;nan;97882.19;4994473;28;20464;-59
2022/04/05 10:11:45;;;;;;;0.33;0.33;;;;;;;10.45;nan;97900.75;4992088;28;20157;-61
2022/04/05 10:14:14;;;;;;;0.50;0.50;;;;;;;10.54;nan;97902.22;4992299;28;20117;-62
2022/04/05 10:16:40;;;;;;;0.47;0.47;;;;;;;10.49;nan;97904.91;4994120;28;20399;-59
2022/04/05 10:19:09;;;;;;;0.47;0.47;;;;;;;10.68;nan;97894.94;4993692;28;20074;-59
2022/04/05 10:21:36;;;;;;;0.75;0.65;;;;;;;10.56;nan;97899.59;4991576;28;20033;-62
2022/04/05 10:24:05;;;;;;;2.75;0.60;;;;;;;10.72;nan;97913.63;4991257;28;20487;-61
2022/04/05 10:26:33;;;;;;;0.68;0.68;;;;;;;10.73;nan;97889.66;4992026;28;20452;-61
2022/04/05 10:29:03;;;;;;;0.47;0.47;;;;;;;10.71;nan;97894.00;4993004;28;20437;-61
2022/04/05 10:31:57;;;;;;;0.40;0.40;;;;;;;10.87;nan;97898.59;4990100;28;20041;-60
2022/04/05 10:34:24;;;;;;;0.40;0.40;;;;;;;10.88;nan;97884.88;4991553;28;20073;-61
2022/04/05 10:37:09;;;;;;;0.52;0.52;;;;;;;10.96;nan;97912.84;4993302;28;20155;-61
2022/04/05 10:39:35;;;;;;;;;;;;;;;11.19;nan;97889.84;4990924;28;20121;-61
2022/04/05 10:42:13;;;;;;;0.68;0.68;;;;;;;11.31;nan;97906.56;4990790;28;19917;-60
2022/04/05 10:44:41;;;;;;;3.63;2.05;;;;;;;11.08;nan;97917.56;4991701;28;20030;-61
2022/04/05 10:47:07;;;;;;;0.90;0.70;;;;;;;10.88;nan;97899.44;4990955;28;20038;-60
2022/04/05 10:49:43;;;;;;;0.50;0.50;;;;;;;10.99;nan;97913.56;4988301;28;20057;-60
2022/04/05 10:52:15;;;;;;;0.40;0.40;;;;;;;10.77;nan;97906.63;4989903;28;20092;-62
2022/04/05 10:54:43;;;;;;;0.65;0.65;;;;;;;10.91;nan;97910.41;4993325;28;20030;-61
2022/04/05 10:57:27;;;;;;;0.70;0.70;;;;;;;10.88;nan;97915.66;4990979;28;20030;-60
2022/04/05 11:00:04;;;;;;;0.47;0.47;;;;;;;10.77;nan;97932.28;4990070;28;20516;-61
2022/04/05 11:02:39;;;;;;;0.60;0.60;;;;;;;10.78;nan;97908.28;4989554;28;20077;-61
2022/04/05 11:05:27;;;;;;;0.68;0.68;;;;;;;10.86;nan;97939.69;4991865;28;20042;-61
2022/04/05 11:07:59;;;;;;;1.00;0.60;;;;;;;10.82;nan;97922.72;4991194;28;20352;-60
2022/04/05 11:10:36;;;;;;;0.65;0.65;;;;;;;10.62;nan;97940.41;4990470;28;20042;-60
2022/04/05 11:13:29;;;;;;;0.60;0.60;;;;;;;10.71;nan;97933.28;4992721;28;20030;-61
2022/04/05 11:15:57;;;;;;;0.60;0.60;;;;;;;10.67;nan;97941.97;4992005;28;20058;-61
2022/04/05 11:18:26;;;;;;;0.50;0.50;;;;;;;10.68;nan;97924.84;4989624;28;20057;-60
2022/04/05 11:20:54;;;;;;;0.53;0.53;;;;;;;10.74;nan;97937.47;4989403;28;20045;-61
2022/04/05 11:23:39;;;;;;;0.50;0.50;;;;;;;10.64;nan;97907.91;4991762;28;20201;-61
2022/04/05 11:26:28;;;;;;;0.75;0.75;;;;;;;10.69;nan;97927.38;4991667;28;20641;-61
2022/04/05 11:28:55;;;;;;;0.80;0.80;;;;;;;11.08;nan;97927.84;4997453;28;20042;-62
2022/04/05 11:31:37;;;;;;;1.08;0.98;;;;;;;11.45;nan;97927.47;4992575;28;20528;-61
2022/04/05 11:34:35;;;;;;;0.80;0.80;;;;;;;11.50;nan;97940.16;4992057;28;20037;-62
2022/04/05 11:37:01;;;;;;;0.90;0.90;;;;;;;11.28;nan;97925.47;4990694;28;20105;-60
2022/04/05 11:39:26;;;;;;;1.58;0.60;;;;;;;11.37;nan;97922.56;4990117;28;20034;-61
2022/04/05 11:42:00;;;;;;;0.70;0.70;;;;;;;11.78;nan;97925.50;4991756;28;20041;-61
2022/04/05 11:44:25;;;;;;;0.77;0.77;;;;;;;11.78;nan;97928.91;4990046;28;20049;-61
2022/04/05 11:46:54;;;;;;;0.60;0.60;;;;;;;11.54;nan;97919.47;4988579;28;20507;-60
2022/04/05 11:49:20;;;;;;;0.90;0.90;;;;;;;11.85;nan;97937.22;4992044;28;20084;-61
2022/04/05 11:51:48;;;;;;;0.88;0.80;;;;;;;11.76;nan;97938.38;4990131;28;20439;-60
2022/04/05 11:54:21;;;;;;;0.80;0.80;;;;;;;11.27;nan;97931.50;4989540;28;20038;-61
2022/04/05 11:56:47;;;;;;;0.88;0.88;;;;;;;11.44;nan;97918.09;4988637;28;20033;-61
2022/04/05 11:59:15;;;;;;;0.55;0.55;;;;;;;11.06;nan;97933.91;4988469;28;20626;-60